Time;durP1;ratioP1;P1;durP2;ratioP2;P2;SDS_P1;SDS_P2;PMS_P1;PMS_P2;Temp;Humidity;BMP_temperature;BMP_pressure;BME280_temperature;BME280_humidity;BME280_pressure;Samples;Min_cycle;Max_cycle;Signal;HPM_P1;HPM_P2
2023/03/27 00:01:55;;;;;;;;;;;10.70;99.90;;;;;;4983095;28;20338;-79
2023/03/27 00:04:23;;;;;;;;;;;10.70;99.90;;;;;;5004348;28;20343;-79
2023/03/27 00:06:49;;;;;;;;;;;10.70;99.90;;;;;;4996268;28;19992;-79
2023/03/27 00:09:18;;;;;;;;;;;10.70;99.90;;;;;;4999488;28;19992;-78
2023/03/27 00:11:44;;;;;;;;;;;10.70;99.90;;;;;;4997449;28;20354;-78
2023/03/27 00:14:15;;;;;;;;;;;10.60;99.90;;;;;;4995269;28;19906;-79
2023/03/27 00:16:45;;;;;;;;;;;10.60;99.90;;;;;;4997040;28;19905;-79
2023/03/27 00:19:11;;;;;;;;;;;10.60;99.90;;;;;;5004249;28;19910;-79
2023/03/27 00:21:43;;;;;;;;;;;10.60;99.90;;;;;;4999303;28;19917;-79
2023/03/27 00:24:18;;;;;;;;;;;10.60;99.90;;;;;;5000064;28;19914;-79
2023/03/27 00:26:43;;;;;;;;;;;10.60;99.90;;;;;;5003269;28;19910;-79
2023/03/27 00:29:09;;;;;;;;;;;10.60;99.90;;;;;;5001302;28;19909;-79
2023/03/27 00:31:36;;;;;;;;;;;10.60;99.90;;;;;;4998653;28;20278;-79
2023/03/27 00:34:02;;;;;;;;;;;10.50;99.90;;;;;;4996793;28;19917;-79
2023/03/27 00:36:29;;;;;;;;;;;10.50;99.90;;;;;;5001761;28;19920;-79
2023/03/27 00:38:54;;;;;;;;;;;10.50;99.90;;;;;;4996717;28;19947;-79
2023/03/27 00:41:21;;;;;;;;;;;10.50;99.90;;;;;;4996304;28;20410;-79
2023/03/27 00:43:47;;;;;;;;;;;10.50;99.90;;;;;;4996962;28;19916;-79
2023/03/27 00:46:31;;;;;;;;;;;10.50;99.90;;;;;;4997964;28;19913;-79
2023/03/27 00:49:00;;;;;;;;;;;10.40;99.90;;;;;;5005389;28;19964;-79
2023/03/27 00:51:27;;;;;;;;;;;10.40;99.90;;;;;;5007485;28;20351;-78
2023/03/27 00:53:54;;;;;;;;;;;10.30;99.90;;;;;;5003382;28;20760;-79
2023/03/27 00:56:21;;;;;;;;;;;10.30;99.90;;;;;;5008941;28;19913;-79
2023/03/27 00:58:50;;;;;;;;;;;10.30;99.90;;;;;;5004418;28;19928;-79
2023/03/27 01:01:16;;;;;;;;;;;10.30;99.90;;;;;;5008418;28;19949;-79
2023/03/27 01:03:45;;;;;;;;;;;10.20;99.90;;;;;;5002711;28;19949;-79
2023/03/27 01:06:13;;;;;;;;;;;10.20;99.90;;;;;;4988016;28;19905;-79
2023/03/27 01:08:43;;;;;;;;;;;10.20;99.90;;;;;;4998416;28;19911;-78
2023/03/27 01:14:07;;;;;;;;;;;10.10;99.90;;;;;;5001279;28;19916;-79
2023/03/27 01:19:40;;;;;;;;;;;10.00;99.90;;;;;;5001180;28;19915;-78
2023/03/27 01:22:25;;;;;;;;;;;10.00;99.90;;;;;;4999462;28;19915;-79
2023/03/27 01:24:58;;;;;;;;;;;9.90;99.90;;;;;;4983311;28;20355;-79
2023/03/27 01:27:36;;;;;;;;;;;9.90;99.90;;;;;;4985468;28;19914;-79
2023/03/27 01:30:05;;;;;;;;;;;9.80;99.90;;;;;;4983424;28;20690;-79
2023/03/27 01:32:50;;;;;;;;;;;9.70;99.90;;;;;;5002854;28;20437;-78
2023/03/27 01:35:50;;;;;;;;;;;9.70;99.90;;;;;;5001270;28;19905;-79
2023/03/27 01:38:28;;;;;;;;;;;9.70;99.90;;;;;;4931154;28;19914;-79
2023/03/27 01:41:14;;;;;;;;;;;9.60;99.90;;;;;;4975865;28;19925;-79
2023/03/27 01:43:59;;;;;;;;;;;9.50;99.90;;;;;;4991587;28;19940;-78
2023/03/27 01:46:44;;;;;;;;;;;9.50;99.90;;;;;;4998953;28;20032;-78
2023/03/27 01:49:13;;;;;;;;;;;9.40;99.90;;;;;;5000830;28;20005;-79
2023/03/27 01:51:45;;;;;;;;;;;9.30;99.90;;;;;;4994031;28;19963;-79
2023/03/27 01:54:26;;;;;;;;;;;9.30;99.90;;;;;;4998489;28;19909;-79
2023/03/27 01:59:59;;;;;;;;;;;9.30;99.90;;;;;;4994719;28;20370;-78
2023/03/27 02:02:29;;;;;;;;;;;9.30;99.90;;;;;;4986310;28;20352;-79
2023/03/27 02:05:08;;;;;;;;;;;9.20;99.90;;;;;;4998393;28;19963;-81
2023/03/27 02:07:37;;;;;;;;;;;9.20;99.90;;;;;;5002651;28;19905;-79
2023/03/27 02:10:07;;;;;;;;;;;9.20;99.90;;;;;;4981360;28;19914;-79
2023/03/27 02:12:37;;;;;;;;;;;9.20;99.90;;;;;;5003234;28;21277;-79
2023/03/27 02:15:07;;;;;;;;;;;9.10;99.90;;;;;;4999030;28;19922;-79
2023/03/27 02:17:37;;;;;;;;;;;9.10;99.90;;;;;;4999891;28;20248;-79
2023/03/27 02:20:10;;;;;;;;;;;9.10;99.90;;;;;;4997632;28;19956;-78
2023/03/27 02:22:40;;;;;;;;;;;9.10;99.90;;;;;;5003600;28;19952;-79
2023/03/27 02:25:09;;;;;;;;;;;9.00;99.90;;;;;;4997522;28;20132;-78
2023/03/27 02:27:43;;;;;;;;;;;8.90;99.90;;;;;;5003478;28;19932;-79
2023/03/27 02:30:30;;;;;;;;;;;8.90;99.90;;;;;;4997960;28;19936;-78
2023/03/27 02:33:13;;;;;;;;;;;8.90;99.90;;;;;;4993085;28;20008;-79
2023/03/27 02:35:40;;;;;;;;;;;8.90;99.90;;;;;;5002145;28;19905;-78
2023/03/27 02:38:16;;;;;;;;;;;8.90;99.90;;;;;;5001174;28;19939;-78
2023/03/27 02:40:48;;;;;;;;;;;8.90;99.90;;;;;;4993917;28;19909;-80
2023/03/27 02:43:31;;;;;;;;;;;8.80;99.90;;;;;;4995107;28;19951;-78
2023/03/27 02:46:08;;;;;;;;;;;8.80;99.90;;;;;;4996923;28;19905;-79
2023/03/27 02:48:37;;;;;;;;;;;8.70;99.90;;;;;;4998764;28;19913;-78
2023/03/27 02:51:05;;;;;;;;;;;8.70;99.90;;;;;;4996959;28;19909;-79
2023/03/27 02:53:41;;;;;;;;;;;8.70;99.90;;;;;;4996147;28;19935;-78
2023/03/27 02:56:14;;;;;;;;;;;8.70;99.90;;;;;;4996237;28;19955;-78
2023/03/27 02:58:43;;;;;;;;;;;8.70;99.90;;;;;;4999107;28;20744;-78
2023/03/27 03:01:12;;;;;;;;;;;8.60;99.90;;;;;;4998116;28;20439;-78
2023/03/27 03:03:42;;;;;;;;;;;8.60;99.90;;;;;;5002087;28;19916;-79
2023/03/27 03:06:13;;;;;;;;;;;8.60;99.90;;;;;;4985260;28;19906;-79
2023/03/27 03:08:42;;;;;;;;;;;8.70;99.90;;;;;;4985622;28;19913;-79
2023/03/27 03:11:11;;;;;;;;;;;8.70;99.90;;;;;;4981279;28;19909;-78
2023/03/27 03:13:41;;;;;;;;;;;8.70;99.90;;;;;;4996666;28;19955;-79
2023/03/27 03:16:18;;;;;;;;;;;8.70;99.90;;;;;;5002807;28;19959;-78
2023/03/27 03:18:51;;;;;;;;;;;8.70;99.90;;;;;;4998495;28;19909;-78
2023/03/27 03:21:17;;;;;;;;;;;8.60;99.90;;;;;;5000985;28;20547;-78
2023/03/27 03:23:44;;;;;;;;;;;8.60;99.90;;;;;;4997630;28;19913;-78
2023/03/27 03:26:19;;;;;;;;;;;8.60;99.90;;;;;;5001808;28;19992;-79
2023/03/27 03:28:46;;;;;;;;;;;8.50;99.90;;;;;;4997074;28;19906;-78
2023/03/27 03:31:13;;;;;;;;;;;8.60;99.90;;;;;;5001200;28;20342;-78
2023/03/27 03:33:40;;;;;;;;;;;8.60;99.90;;;;;;4999440;28;19909;-79
2023/03/27 03:36:08;;;;;;;;;;;8.60;99.90;;;;;;4998053;28;20346;-79
2023/03/27 03:38:36;;;;;;;;;;;8.50;99.90;;;;;;5000976;28;20020;-78
2023/03/27 03:41:05;;;;;;;;;;;8.50;99.90;;;;;;4997562;28;20599;-79
2023/03/27 03:43:32;;;;;;;;;;;8.40;99.90;;;;;;5002313;28;20392;-78
2023/03/27 03:46:02;;;;;;;;;;;8.40;99.90;;;;;;4997164;28;19944;-79
2023/03/27 03:48:30;;;;;;;;;;;8.30;99.90;;;;;;5002022;28;19906;-79
2023/03/27 03:50:55;;;;;;;;;;;8.30;99.90;;;;;;4996624;28;20007;-78
2023/03/27 03:53:21;;;;;;;;;;;8.30;99.90;;;;;;4998003;28;20000;-79
2023/03/27 03:55:49;;;;;;;;;;;8.30;99.90;;;;;;5002240;28;19905;-80
2023/03/27 03:58:21;;;;;;;;;;;8.30;99.90;;;;;;4996867;28;19909;-78
2023/03/27 04:00:53;;;;;;;;;;;8.30;99.90;;;;;;4996820;28;19991;-79
2023/03/27 04:03:19;;;;;;;;;;;8.30;99.90;;;;;;5000656;28;20426;-79
2023/03/27 04:05:45;;;;;;;;;;;8.30;99.90;;;;;;5005952;28;20267;-78
2023/03/27 04:08:11;;;;;;;;;;;8.30;99.90;;;;;;4997051;28;19910;-78
2023/03/27 04:10:40;;;;;;;;;;;8.20;99.90;;;;;;5001273;28;19917;-78
2023/03/27 04:13:06;;;;;;;;;;;8.20;99.90;;;;;;4995424;28;19916;-79
2023/03/27 04:15:31;;;;;;;;;;;8.20;99.90;;;;;;4995546;28;19909;-78
2023/03/27 04:17:58;;;;;;;;;;;8.20;99.90;;;;;;4976087;28;20457;-79
2023/03/27 04:20:26;;;;;;;;;;;8.20;99.90;;;;;;5004641;28;19924;-79
2023/03/27 04:23:02;;;;;;;;;;;8.20;99.90;;;;;;4999999;28;19911;-79
2023/03/27 04:25:31;;;;;;;;;;;8.20;99.90;;;;;;4994523;28;19901;-79
2023/03/27 04:28:01;;;;;;;;;;;8.30;99.90;;;;;;4983988;28;19932;-79
2023/03/27 04:30:29;;;;;;;;;;;8.20;99.90;;;;;;4984411;28;19913;-78
2023/03/27 04:32:58;;;;;;;;;;;8.20;99.90;;;;;;4984206;28;20267;-79
2023/03/27 04:35:24;;;;;;;;;;;8.30;99.90;;;;;;5005238;28;19920;-82
2023/03/27 04:38:01;;;;;;;;;;;8.30;99.90;;;;;;5001828;28;19910;-79
2023/03/27 04:40:29;;;;;;;;;;;8.30;99.90;;;;;;4993598;28;19913;-79
2023/03/27 04:42:55;;;;;;;;;;;8.30;99.90;;;;;;4999356;28;19920;-79
2023/03/27 04:45:24;;;;;;;;;;;8.30;99.90;;;;;;5004701;28;19917;-79
2023/03/27 04:47:51;;;;;;;;;;;8.30;99.90;;;;;;5003346;28;19952;-79
2023/03/27 04:50:34;;;;;;;;;;;8.40;99.90;;;;;;4999641;28;19916;-81
2023/03/27 04:53:01;;;;;;;;;;;8.40;99.90;;;;;;5000759;28;20008;-79
2023/03/27 04:55:36;;;;;;;;;;;8.40;99.90;;;;;;4999254;28;19996;-79
2023/03/27 04:58:03;;;;;;;;;;;8.40;99.90;;;;;;4999649;28;19910;-79
2023/03/27 05:00:35;;;;;;;;;;;8.40;99.90;;;;;;5000385;28;19940;-80
2023/03/27 05:03:02;;;;;;;;;;;8.50;99.90;;;;;;5002725;28;19945;-80
2023/03/27 05:05:32;;;;;;;;;;;8.50;99.90;;;;;;4995823;28;19909;-83
2023/03/27 05:07:57;;;;;;;;;;;8.50;99.90;;;;;;4999105;28;20286;-79
2023/03/27 05:10:25;;;;;;;;;;;8.50;99.90;;;;;;4995972;28;19941;-78
2023/03/27 05:12:53;;;;;;;;;;;8.50;99.90;;;;;;5000285;28;19956;-79
2023/03/27 05:15:20;;;;;;;;;;;8.50;99.90;;;;;;4998461;28;20351;-80
2023/03/27 05:17:53;;;;;;;;;;;8.50;99.90;;;;;;4994672;28;19984;-74
2023/03/27 05:20:28;;;;;;;;;;;8.50;99.90;;;;;;5015453;28;20415;-82
2023/03/27 05:22:56;;;;;;;;;;;8.80;99.90;;;;;;4986518;28;19909;-80
2023/03/27 05:25:23;;;;;;;;;;;9.00;99.90;;;;;;4998838;28;19905;-81
2023/03/27 05:27:52;;;;;;;;;;;8.90;99.90;;;;;;4999337;28;19905;-80
2023/03/27 05:30:20;;;;;;;;;;;8.90;99.90;;;;;;4998344;28;19917;-81
2023/03/27 05:32:50;;;;;;;;;;;8.80;99.90;;;;;;5000528;28;19935;-80
2023/03/27 05:35:20;;;;;;;;;;;8.80;99.90;;;;;;4997315;28;19959;-81
2023/03/27 05:37:53;;;;;;;;;;;8.70;99.90;;;;;;4986858;28;19906;-80
2023/03/27 05:40:21;;;;;;;;;;;8.70;99.90;;;;;;5001470;28;20500;-81
2023/03/27 05:42:48;;;;;;;;;;;8.70;99.90;;;;;;5001098;28;19917;-81
2023/03/27 05:45:15;;;;;;;;;;;8.60;99.90;;;;;;5000400;28;19905;-81
2023/03/27 05:47:48;;;;;;;;;;;8.60;99.90;;;;;;5001419;28;19912;-81
2023/03/27 05:50:16;;;;;;;;;;;8.60;99.90;;;;;;5006464;28;20028;-80
2023/03/27 05:52:42;;;;;;;;;;;8.60;99.90;;;;;;5008270;28;19915;-81
2023/03/27 05:55:12;;;;;;;;;;;8.50;99.90;;;;;;5001613;28;19910;-81
2023/03/27 05:57:39;;;;;;;;;;;8.60;99.90;;;;;;5001531;28;19948;-81
2023/03/27 06:00:10;;;;;;;;;;;8.60;99.90;;;;;;5002716;28;19967;-81
2023/03/27 06:02:37;;;;;;;;;;;8.50;99.90;;;;;;4999025;28;20013;-82
2023/03/27 06:05:04;;;;;;;;;;;8.50;99.90;;;;;;4995757;28;19905;-81
2023/03/27 06:07:31;;;;;;;;;;;8.50;99.90;;;;;;5001982;28;19913;-81
2023/03/27 06:09:57;;;;;;;;;;;8.40;99.90;;;;;;4997808;28;20010;-81
2023/03/27 06:12:25;;;;;;;;;;;8.40;99.90;;;;;;5000151;28;19916;-81
2023/03/27 06:14:53;;;;;;;;;;;8.50;99.90;;;;;;4998008;28;19912;-81
2023/03/27 06:17:22;;;;;;;;;;;8.50;99.90;;;;;;5003059;28;19913;-81
2023/03/27 06:20:09;;;;;;;;;;;8.60;99.90;;;;;;4998654;28;19987;-81
2023/03/27 06:22:45;;;;;;;;;;;8.60;99.90;;;;;;4998170;28;20067;-81
2023/03/27 06:25:14;;;;;;;;;;;8.70;99.90;;;;;;4999669;28;20385;-83
2023/03/27 06:27:52;;;;;;;;;;;8.80;99.90;;;;;;4999911;28;19909;-81
2023/03/27 06:30:37;;;;;;;;;;;8.90;99.90;;;;;;4999465;28;19905;-81
2023/03/27 06:33:04;;;;;;;;;;;9.00;99.90;;;;;;5008477;28;20055;-81
2023/03/27 06:35:31;;;;;;;;;;;9.20;99.90;;;;;;4998620;28;19909;-81
2023/03/27 06:38:01;;;;;;;;;;;9.20;99.90;;;;;;4999044;28;20417;-81
2023/03/27 06:40:30;;;;;;;;;;;9.30;99.90;;;;;;4998213;28;20281;-82
2023/03/27 06:43:07;;;;;;;;;;;9.20;99.90;;;;;;5001410;28;20635;-81
2023/03/27 06:45:47;;;;;;;;;;;9.30;99.90;;;;;;4997963;28;19914;-81
2023/03/27 06:48:16;;;;;;;;;;;9.30;99.90;;;;;;5003988;28;20170;-81
2023/03/27 06:50:43;;;;;;;;;;;9.40;99.90;;;;;;4997348;28;19909;-82
2023/03/27 06:53:15;;;;;;;;;;;9.50;99.90;;;;;;4997439;28;19912;-82
2023/03/27 06:55:41;;;;;;;;;;;9.50;99.90;;;;;;4980573;28;19940;-80
2023/03/27 06:58:07;;;;;;;;;;;9.60;99.90;;;;;;5005685;28;20347;-81
2023/03/27 07:00:36;;;;;;;;;;;9.70;99.90;;;;;;4998404;28;19917;-81
2023/03/27 07:03:03;;;;;;;;;;;9.60;99.90;;;;;;4998847;28;19917;-82
2023/03/27 07:05:30;;;;;;;;;;;9.60;99.90;;;;;;4981558;28;19910;-81
2023/03/27 07:07:59;;;;;;;;;;;9.60;99.90;;;;;;5002671;28;19968;-82
2023/03/27 07:10:25;;;;;;;;;;;9.60;99.90;;;;;;4984796;28;19976;-81
2023/03/27 07:12:55;;;;;;;;;;;9.60;99.90;;;;;;4999826;28;19905;-81
2023/03/27 07:15:23;;;;;;;;;;;9.50;99.90;;;;;;4996628;28;19913;-81
2023/03/27 07:17:59;;;;;;;;;;;9.40;99.90;;;;;;4997422;28;20365;-81
2023/03/27 07:20:27;;;;;;;;;;;9.40;99.90;;;;;;4997657;28;19912;-82
2023/03/27 07:22:56;;;;;;;;;;;9.30;99.90;;;;;;4999188;28;19906;-81
2023/03/27 07:25:25;;;;;;;;;;;9.30;99.90;;;;;;4992762;28;19937;-81
2023/03/27 07:27:59;;;;;;;;;;;9.40;99.90;;;;;;5003614;28;19906;-82
2023/03/27 07:30:27;;;;;;;;;;;9.40;99.90;;;;;;4997476;28;19923;-82
2023/03/27 07:32:52;;;;;;;;;;;9.40;99.90;;;;;;4994893;28;19906;-81
2023/03/27 07:35:22;;;;;;;;;;;9.50;99.90;;;;;;4982097;28;20051;-80
2023/03/27 07:37:55;;;;;;;;;;;9.60;99.90;;;;;;4998724;28;19909;-81
2023/03/27 07:40:21;;;;;;;;;;;9.80;99.90;;;;;;4998390;28;20279;-82
2023/03/27 07:42:50;;;;;;;;;;;10.00;99.90;;;;;;4998374;28;19912;-81
2023/03/27 07:45:17;;;;;;;;;;;10.10;99.90;;;;;;4995617;28;19906;-81
2023/03/27 07:47:51;;;;;;;;;;;10.10;99.90;;;;;;4996493;28;19991;-81
2023/03/27 07:50:19;;;;;;;;;;;10.20;99.90;;;;;;5000119;28;19906;-81
2023/03/27 07:52:45;;;;;;;;;;;10.30;99.90;;;;;;4996622;28;20016;-81
2023/03/27 07:55:17;;;;;;;;;;;10.50;99.90;;;;;;5000486;28;19913;-80
2023/03/27 07:57:46;;;;;;;;;;;10.50;99.90;;;;;;4999433;28;20517;-80
2023/03/27 08:00:16;;;;;;;;;;;10.60;99.90;;;;;;5000571;28;20004;-81
2023/03/27 08:02:42;;;;;;;;;;;10.70;99.90;;;;;;4999299;28;19963;-81
2023/03/27 08:05:10;;;;;;;;;;;10.70;99.90;;;;;;5000043;28;19956;-81
2023/03/27 08:07:44;;;;;;;;;;;10.60;99.90;;;;;;5001647;28;19925;-80
2023/03/27 08:10:23;;;;;;;;;;;10.90;99.90;;;;;;4999759;28;19910;-81
2023/03/27 08:12:54;;;;;;;;;;;11.00;99.90;;;;;;5000809;28;19909;-81
2023/03/27 08:15:21;;;;;;;;;;;11.40;99.90;;;;;;5000313;28;19905;-81
2023/03/27 08:17:53;;;;;;;;;;;11.50;99.90;;;;;;4995628;28;20385;-81
2023/03/27 08:20:30;;;;;;;;;;;12.10;99.90;;;;;;5002044;28;19910;-81
2023/03/27 08:23:01;;;;;;;;;;;12.70;99.90;;;;;;4996302;28;19913;-81
2023/03/27 08:25:33;;;;;;;;;;;13.10;99.90;;;;;;4983909;28;19992;-81
2023/03/27 08:28:03;;;;;;;;;;;13.00;99.90;;;;;;4999266;28;19905;-81
2023/03/27 08:30:34;;;;;;;;;;;12.50;99.90;;;;;;5000140;28;20437;-82
2023/03/27 08:33:02;;;;;;;;;;;12.30;99.90;;;;;;4996224;28;19909;-82
2023/03/27 08:35:36;;;;;;;;;;;12.20;99.90;;;;;;4999736;28;19913;-81
2023/03/27 08:38:03;;;;;;;;;;;12.40;99.90;;;;;;5000754;28;19949;-81
2023/03/27 08:40:32;;;;;;;;;;;13.10;99.90;;;;;;4997705;28;19905;-81
2023/03/27 08:43:05;;;;;;;;;;;13.50;99.90;;;;;;5001289;28;19975;-81
2023/03/27 08:45:41;;;;;;;;;;;13.40;99.90;;;;;;4996224;28;19913;-81
2023/03/27 08:48:13;;;;;;;;;;;13.30;99.90;;;;;;5001438;28;19921;-82
2023/03/27 08:50:59;;;;;;;;;;;13.00;99.90;;;;;;5001171;28;20258;-82
2023/03/27 08:53:47;;;;;;;;;;;12.70;99.90;;;;;;4994485;28;19913;-82
2023/03/27 08:56:20;;;;;;;;;;;12.10;99.90;;;;;;4984411;28;20313;-81
2023/03/27 08:58:49;;;;;;;;;;;12.10;99.90;;;;;;4998214;28;19913;-81
2023/03/27 09:01:30;;;;;;;;;;;11.80;99.90;;;;;;5000018;28;20261;-81
2023/03/27 09:04:03;;;;;;;;;;;11.60;99.90;;;;;;4994399;28;19917;-81
2023/03/27 09:06:51;;;;;;;;;;;11.40;99.90;;;;;;4999973;28;19940;-81
2023/03/27 09:09:37;;;;;;;;;;;10.70;99.90;;;;;;5003534;28;19906;-81
2023/03/27 09:12:04;;;;;;;;;;;10.50;99.90;;;;;;4998906;28;19909;-81
2023/03/27 09:14:44;;;;;;;;;;;9.80;99.90;;;;;;4980195;28;19916;-81
2023/03/27 09:17:20;;;;;;;;;;;9.40;99.90;;;;;;5009236;28;19916;-80
2023/03/27 09:19:56;;;;;;;;;;;9.00;99.90;;;;;;4993855;28;19929;-81
2023/03/27 09:22:24;;;;;;;;;;;9.00;99.90;;;;;;4998863;28;19909;-81
2023/03/27 09:24:57;;;;;;;;;;;8.80;99.90;;;;;;4999193;28;19913;-81
2023/03/27 09:27:31;;;;;;;;;;;9.00;99.90;;;;;;4999765;28;19953;-82
2023/03/27 09:30:14;;;;;;;;;;;9.00;99.90;;;;;;5000674;28;20286;-85
2023/03/27 09:32:40;;;;;;;;;;;9.30;99.90;;;;;;4995598;28;19955;-82
2023/03/27 09:35:06;;;;;;;;;;;9.50;99.90;;;;;;4998962;28;19906;-80
2023/03/27 09:37:45;;;;;;;;;;;9.50;99.90;;;;;;5000419;28;19913;-82
2023/03/27 09:40:24;;;;;;;;;;;9.60;99.90;;;;;;4984101;28;19941;-83
2023/03/27 09:42:58;;;;;;;;;;;9.40;99.90;;;;;;4995316;28;19938;-81
2023/03/27 09:45:30;;;;;;;;;;;8.80;99.90;;;;;;5002567;28;19917;-81
2023/03/27 09:48:01;;;;;;;;;;;8.50;99.90;;;;;;4999010;28;19913;-80
2023/03/27 09:50:40;;;;;;;;;;;8.30;99.90;;;;;;5003522;28;19960;-83
2023/03/27 09:53:11;;;;;;;;;;;7.90;99.90;;;;;;4996483;28;19993;-81
2023/03/27 09:55:49;;;;;;;;;;;7.80;99.90;;;;;;5000145;28;19920;-81
2023/03/27 09:58:22;;;;;;;;;;;8.00;99.90;;;;;;4997515;28;19912;-81
2023/03/27 10:01:05;;;;;;;;;;;8.20;99.90;;;;;;4995774;28;20607;-81
2023/03/27 10:03:37;;;;;;;;;;;8.10;99.90;;;;;;5004212;28;20381;-81
2023/03/27 10:06:12;;;;;;;;;;;8.00;99.90;;;;;;4999547;28;20004;-82
2023/03/27 10:08:46;;;;;;;;;;;7.80;99.90;;;;;;5004915;28;20307;-81
2023/03/27 10:11:16;;;;;;;;;;;7.50;99.90;;;;;;5002253;28;20465;-81
2023/03/27 10:13:48;;;;;;;;;;;7.20;99.90;;;;;;5002803;28;19906;-82
2023/03/27 10:16:22;;;;;;;;;;;7.00;99.90;;;;;;5002566;28;19911;-82
2023/03/27 10:18:50;;;;;;;;;;;7.30;99.90;;;;;;5019303;28;19898;-85
2023/03/27 10:21:37;;;;;;;;;;;7.70;99.90;;;;;;5008692;28;19913;-80
2023/03/27 10:24:17;;;;;;;;;;;8.20;99.90;;;;;;5001572;28;19909;-82
2023/03/27 10:26:48;;;;;;;;;;;8.30;99.90;;;;;;4995059;28;19910;-81
2023/03/27 10:29:31;;;;;;;;;;;8.50;99.90;;;;;;4981719;28;19905;-82
2023/03/27 10:32:04;;;;;;;;;;;8.70;99.90;;;;;;4999444;28;19906;-81
2023/03/27 10:34:32;;;;;;;;;;;8.80;99.90;;;;;;5000094;28;19910;-82
2023/03/27 10:37:03;;;;;;;;;;;8.80;99.90;;;;;;4998785;28;19905;-81
2023/03/27 10:39:33;;;;;;;;;;;9.20;99.90;;;;;;4995773;28;19944;-82
2023/03/27 10:42:08;;;;;;;;;;;9.00;99.90;;;;;;4998623;28;19997;-81
2023/03/27 10:44:36;;;;;;;;;;;8.80;99.90;;;;;;5014059;28;19913;-82
2023/03/27 10:47:21;;;;;;;;;;;8.60;99.90;;;;;;5003801;28;19905;-82
2023/03/27 10:50:06;;;;;;;;;;;8.30;99.90;;;;;;4997190;28;19905;-82
2023/03/27 10:52:42;;;;;;;;;;;7.70;99.90;;;;;;5000152;28;20374;-84
2023/03/27 10:55:20;;;;;;;;;;;7.10;99.90;;;;;;4997164;28;19913;-82
2023/03/27 10:57:49;;;;;;;;;;;7.10;99.90;;;;;;4995682;28;19913;-81
2023/03/27 11:00:19;;;;;;;;;;;6.90;99.90;;;;;;5001898;28;19910;-82
2023/03/27 11:03:13;;;;;;;;;;;6.50;99.90;;;;;;4998173;28;19913;-81
2023/03/27 11:05:42;;;;;;;;;;;6.10;99.90;;;;;;4998907;28;20000;-81
2023/03/27 11:08:14;;;;;;;;;;;5.90;99.90;;;;;;5009434;28;20004;-82
2023/03/27 11:10:49;;;;;;;;;;;5.70;99.90;;;;;;4999497;28;20024;-81
2023/03/27 11:13:22;;;;;;;;;;;5.80;99.90;;;;;;5000045;28;19912;-82
2023/03/27 11:16:07;;;;;;;;;;;5.40;99.90;;;;;;4990441;28;19905;-82
2023/03/27 11:18:39;;;;;;;;;;;5.40;99.90;;;;;;4995521;28;19909;-82
2023/03/27 11:21:11;;;;;;;;;;;5.40;99.90;;;;;;5003793;28;19924;-83
2023/03/27 11:23:37;;;;;;;;;;;5.30;99.90;;;;;;4999613;28;19952;-82
2023/03/27 11:26:10;;;;;;;;;;;5.20;99.90;;;;;;4983458;28;19909;-81
2023/03/27 11:28:51;;;;;;;;;;;5.20;99.90;;;;;;4986049;28;19905;-82
2023/03/27 11:31:44;;;;;;;;;;;5.20;99.90;;;;;;4999607;28;19906;-83
2023/03/27 11:34:21;;;;;;;;;;;5.10;99.90;;;;;;5008959;28;19905;-82
2023/03/27 11:36:48;;;;;;;;;;;5.20;99.90;;;;;;5006770;28;19999;-82
2023/03/27 11:39:30;;;;;;;;;;;5.30;99.90;;;;;;4983241;28;19936;-82
2023/03/27 11:42:00;;;;;;;;;;;5.40;99.90;;;;;;5011712;28;20404;-82
2023/03/27 11:44:31;;;;;;;;;;;5.60;99.90;;;;;;4989616;28;19912;-82
2023/03/27 11:47:18;;;;;;;;;;;5.50;99.90;;;;;;4999749;28;19914;-82
2023/03/27 11:50:06;;;;;;;;;;;5.60;99.90;;;;;;5004584;28;19906;-82
2023/03/27 11:52:32;;;;;;;;;;;5.60;99.90;;;;;;4987076;28;19913;-82
2023/03/27 11:54:59;;;;;;;;;;;5.80;99.90;;;;;;4988449;28;19905;-82
2023/03/27 11:57:27;;;;;;;;;;;6.00;99.90;;;;;;4986485;28;19913;-82
2023/03/27 11:59:58;;;;;;;;;;;6.20;99.90;;;;;;5001536;28;19992;-82
2023/03/27 12:02:30;;;;;;;;;;;6.40;99.90;;;;;;5005764;28;20248;-81
2023/03/27 12:05:16;;;;;;;;;;;6.40;99.90;;;;;;4992478;28;19920;-83
2023/03/27 12:07:46;;;;;;;;;;;6.30;99.90;;;;;;4987106;28;19991;-82
2023/03/27 12:10:22;;;;;;;;;;;6.20;99.90;;;;;;5001721;28;19905;-83
2023/03/27 12:13:08;;;;;;;;;;;6.20;99.90;;;;;;5008540;28;19920;-82
2023/03/27 12:15:41;;;;;;;;;;;6.30;99.90;;;;;;5011409;28;20291;-83
2023/03/27 12:18:31;;;;;;;;;;;6.40;99.90;;;;;;5004673;28;19917;-83
2023/03/27 12:21:01;;;;;;;;;;;6.70;99.90;;;;;;5003029;28;19913;-82
2023/03/27 12:23:30;;;;;;;;;;;6.80;99.90;;;;;;4989915;28;19960;-83
2023/03/27 12:26:05;;;;;;;;;;;7.00;99.90;;;;;;4989536;28;20925;-82
2023/03/27 12:28:33;;;;;;;;;;;7.20;99.90;;;;;;4984454;28;20044;-81
2023/03/27 12:31:20;;;;;;;;;;;7.50;99.90;;;;;;5001860;28;19909;-80
2023/03/27 12:33:53;;;;;;;;;;;7.90;99.90;;;;;;4984823;28;19909;-82
2023/03/27 12:36:21;;;;;;;;;;;8.10;99.90;;;;;;5000941;28;19911;-81
2023/03/27 12:39:10;;;;;;;;;;;8.40;99.90;;;;;;5000046;28;19906;-82
2023/03/27 12:41:36;;;;;;;;;;;8.60;99.90;;;;;;5002157;28;19999;-82
2023/03/27 12:44:05;;;;;;;;;;;8.60;99.70;;;;;;4997655;28;19917;-82
2023/03/27 12:46:34;;;;;;;;;;;8.50;98.40;;;;;;5006250;28;19913;-82
2023/03/27 12:49:05;;;;;;;;;;;8.40;97.30;;;;;;4999798;28;19912;-83
2023/03/27 12:51:40;;;;;;;;;;;8.50;96.90;;;;;;5007404;28;19909;-82
2023/03/27 12:54:13;;;;;;;;;;;8.50;95.80;;;;;;5007165;28;19912;-81
2023/03/27 12:56:41;;;;;;;;;;;8.50;96.10;;;;;;4999128;28;19911;-82
2023/03/27 12:59:34;;;;;;;;;;;8.70;95.10;;;;;;5005274;28;19925;-82
2023/03/27 13:02:16;;;;;;;;;;;8.90;93.60;;;;;;4980561;28;19925;-81
2023/03/27 13:05:02;;;;;;;;;;;9.20;93.40;;;;;;4997702;28;19920;-81
2023/03/27 13:07:38;;;;;;;;;;;9.10;92.00;;;;;;4983927;28;20558;-82
2023/03/27 13:10:03;;;;;;;;;;;9.30;90.90;;;;;;5000816;28;19969;-82
2023/03/27 13:12:43;;;;;;;;;;;9.20;90.70;;;;;;5000618;28;20536;-81
2023/03/27 13:15:22;;;;;;;;;;;9.20;87.00;;;;;;5004027;28;19951;-82
2023/03/27 13:17:55;;;;;;;;;;;9.10;89.30;;;;;;4988619;28;20558;-83
2023/03/27 13:20:41;;;;;;;;;;;9.40;89.50;;;;;;4990298;28;19910;-82
2023/03/27 13:23:11;;;;;;;;;;;9.60;87.10;;;;;;4965042;28;20002;-81
2023/03/27 13:25:54;;;;;;;;;;;9.50;86.10;;;;;;4984675;28;19906;-82
2023/03/27 13:28:55;;;;;;;;;;;9.10;85.80;;;;;;5003496;28;20015;-83
2023/03/27 13:31:54;;;;;;;;;;;9.00;86.60;;;;;;4987347;28;20632;-82
2023/03/27 13:34:26;;;;;;;;;;;8.90;84.30;;;;;;4953584;28;19963;-82
2023/03/27 13:36:53;;;;;;;;;;;8.80;82.60;;;;;;5000348;28;19906;-82
2023/03/27 13:39:23;;;;;;;;;;;8.80;82.40;;;;;;4999996;28;20270;-82
2023/03/27 13:41:52;;;;;;;;;;;8.70;81.00;;;;;;5001806;28;19971;-82
2023/03/27 13:44:42;;;;;;;;;;;8.60;81.40;;;;;;4999334;28;20297;-84
2023/03/27 13:47:09;;;;;;;;;;;8.40;80.70;;;;;;4973172;28;19905;-83
2023/03/27 13:49:49;;;;;;;;;;;8.30;82.40;;;;;;4983553;28;19936;-81
2023/03/27 13:52:33;;;;;;;;;;;8.00;83.30;;;;;;4997073;28;19916;-82
2023/03/27 13:55:17;;;;;;;;;;;8.00;83.30;;;;;;5002238;28;19912;-82
2023/03/27 13:58:08;;;;;;;;;;;8.30;83.90;;;;;;4990518;28;19992;-83
2023/03/27 14:00:33;;;;;;;;;;;8.80;84.60;;;;;;4994824;28;19909;-80
2023/03/27 14:02:59;;;;;;;;;;;8.80;81.10;;;;;;4999112;28;19932;-81
2023/03/27 14:05:40;;;;;;;;;;;8.80;77.00;;;;;;5000060;28;20279;-83
2023/03/27 14:08:12;;;;;;;;;;;8.90;77.50;;;;;;4998739;28;20774;-82
2023/03/27 14:10:48;;;;;;;;;;;9.20;77.00;;;;;;5002289;28;19960;-82
2023/03/27 14:13:23;;;;;;;;;;;9.00;74.80;;;;;;4995087;28;19906;-85
2023/03/27 14:16:09;;;;;;;;;;;9.00;75.50;;;;;;4992839;28;19912;-82
2023/03/27 14:18:55;;;;;;;;;;;8.90;74.30;;;;;;4968240;28;19913;-82
2023/03/27 14:21:23;;;;;;;;;;;8.60;72.50;;;;;;5000126;28;19913;-83
2023/03/27 14:23:52;;;;;;;;;;;8.20;73.20;;;;;;4996296;28;20000;-83
2023/03/27 14:26:23;;;;;;;;;;;7.80;72.80;;;;;;4994639;28;20390;-82
2023/03/27 14:28:53;;;;;;;;;;;7.80;75.50;;;;;;4997973;28;20020;-82
2023/03/27 14:31:21;;;;;;;;;;;7.80;74.00;;;;;;4993546;28;19959;-82
2023/03/27 14:33:48;;;;;;;;;;;7.70;74.90;;;;;;5001785;28;19909;-82
2023/03/27 14:36:15;;;;;;;;;;;7.70;75.60;;;;;;5007139;28;20355;-82
2023/03/27 14:38:41;;;;;;;;;;;7.70;75.60;;;;;;4997911;28;20014;-82
2023/03/27 14:41:16;;;;;;;;;;;7.70;75.40;;;;;;5004843;28;20351;-81
2023/03/27 14:43:51;;;;;;;;;;;7.70;75.60;;;;;;5005531;28;19912;-83
2023/03/27 14:46:21;;;;;;;;;;;7.70;75.90;;;;;;5005369;28;19916;-84
2023/03/27 14:48:58;;;;;;;;;;;7.80;74.40;;;;;;4998940;28;19913;-82
2023/03/27 14:51:35;;;;;;;;;;;7.90;73.70;;;;;;5000660;28;19913;-84
2023/03/27 14:54:03;;;;;;;;;;;8.00;73.00;;;;;;5000565;28;19948;-80
2023/03/27 14:56:35;;;;;;;;;;;7.90;72.10;;;;;;4999944;28;20381;-80
2023/03/27 14:59:06;;;;;;;;;;;7.90;72.00;;;;;;4983726;28;19917;-80
2023/03/27 15:01:34;;;;;;;;;;;7.80;71.40;;;;;;4992241;28;19945;-80
2023/03/27 15:04:01;;;;;;;;;;;7.90;72.10;;;;;;4998536;28;20039;-80
2023/03/27 15:06:35;;;;;;;;;;;8.00;72.40;;;;;;5000808;28;19917;-79
2023/03/27 15:09:11;;;;;;;;;;;7.90;72.10;;;;;;4999937;28;19913;-79